createdAt,value
2023-06-17T00:00:42.677Z,97701.13
2023-06-17T00:03:09.843Z,97699.53
2023-06-17T00:05:37.100Z,97702.53
2023-06-17T00:08:03.609Z,97699.31
2023-06-17T00:10:30.085Z,97692.53
2023-06-17T00:12:56.889Z,97698.69
2023-06-17T00:15:23.906Z,97707.25
2023-06-17T00:17:51.336Z,97701.78
2023-06-17T00:20:19.059Z,97711.47
2023-06-17T00:22:48.332Z,97696.94
2023-06-17T00:25:15.196Z,97685.59
2023-06-17T00:27:41.850Z,97689.81
2023-06-17T00:30:08.623Z,97694.84
2023-06-17T00:32:35.293Z,97693.25
2023-06-17T00:35:03.170Z,97681.09
2023-06-17T00:37:29.772Z,97681.38
2023-06-17T00:39:56.562Z,97688.25
2023-06-17T00:42:23.285Z,97692.78
2023-06-17T00:44:50.267Z,97685.31
2023-06-17T00:47:17.118Z,97678.09
2023-06-17T00:49:44.477Z,97678.81
2023-06-17T00:52:27.357Z,97678.25
2023-06-17T00:54:58.013Z,97672.66
2023-06-17T00:57:24.512Z,97672.34
2023-06-17T00:59:51.276Z,97677.75
2023-06-17T01:02:18.671Z,97675.38
2023-06-17T01:04:47.522Z,97673.78
2023-06-17T01:07:28.132Z,97676.84
2023-06-17T01:09:58.272Z,97676.66
2023-06-17T01:12:26.408Z,97674.09
2023-06-17T01:14:54.855Z,97673.56
2023-06-17T01:17:21.536Z,97678.56
2023-06-17T01:19:49.865Z,97683.22
2023-06-17T01:22:17.364Z,97679.38
2023-06-17T01:24:46.334Z,97673.47
2023-06-17T01:27:13.027Z,97676.19
2023-06-17T01:29:39.617Z,97677.59
2023-06-17T01:32:07.548Z,97685.34
2023-06-17T01:34:45.457Z,97676.22
2023-06-17T01:37:12.780Z,97670.16
2023-06-17T01:39:40.831Z,97677.78
2023-06-17T01:42:08.680Z,97677.22
2023-06-17T01:44:35.807Z,97677.91
2023-06-17T01:47:03.321Z,97679.31
2023-06-17T01:49:29.883Z,97677.97
2023-06-17T01:51:56.366Z,97680.22
2023-06-17T01:54:22.879Z,97684.53
2023-06-17T01:56:49.333Z,97689.53
2023-06-17T01:59:16.185Z,97680.91
2023-06-17T02:01:42.836Z,97687.16
2023-06-17T02:04:11.047Z,97680.50
2023-06-17T02:06:40.718Z,97677.66
2023-06-17T02:09:08.117Z,97679.94
2023-06-17T02:11:34.567Z,97679.13
2023-06-17T02:14:01.314Z,97677.22
2023-06-17T02:16:27.932Z,97679.81
2023-06-17T02:18:54.706Z,97676.97
2023-06-17T02:21:21.266Z,97671.47
2023-06-17T02:23:49.842Z,97669.75
2023-06-17T02:26:19.763Z,97670.00
2023-06-17T02:28:46.320Z,97665.56
2023-06-17T02:31:13.980Z,97658.53
2023-06-17T02:33:40.505Z,97656.50
2023-06-17T02:36:07.488Z,97655.59
2023-06-17T02:38:33.958Z,97657.88
2023-06-17T02:41:00.558Z,97652.44
2023-06-17T02:43:27.093Z,97654.81
2023-06-17T02:45:53.638Z,97650.84
2023-06-17T02:48:21.373Z,97657.63
2023-06-17T02:50:47.871Z,97659.81
2023-06-17T02:53:16.200Z,97662.28
2023-06-17T02:55:46.580Z,97656.97
2023-06-17T02:58:20.231Z,97660.59
2023-06-17T03:00:51.374Z,97664.25
2023-06-17T03:03:17.950Z,97659.47
2023-06-17T03:05:44.542Z,97661.94
2023-06-17T03:08:11.386Z,97660.81
2023-06-17T03:10:37.916Z,97666.00
2023-06-17T03:13:10.299Z,97668.06
2023-06-17T03:15:42.970Z,97669.84
2023-06-17T03:18:10.108Z,97661.22
2023-06-17T03:20:39.139Z,97669.84
2023-06-17T03:23:05.881Z,97662.16
2023-06-17T03:25:32.827Z,97662.50
2023-06-17T03:28:01.997Z,97662.50
2023-06-17T03:30:30.150Z,97663.06
2023-06-17T03:32:59.634Z,97666.28
2023-06-17T03:35:26.493Z,97669.81
2023-06-17T03:37:53.148Z,97669.81
2023-06-17T03:40:20.386Z,97675.25
2023-06-17T03:42:47.881Z,97670.25
2023-06-17T03:45:14.552Z,97680.00
2023-06-17T03:47:41.192Z,97679.00
2023-06-17T03:50:08.866Z,97682.31
2023-06-17T03:52:35.927Z,97679.72
2023-06-17T03:55:02.606Z,97673.28
2023-06-17T03:57:29.176Z,97681.22
2023-06-17T03:59:55.796Z,97675.09
2023-06-17T04:02:22.464Z,97678.28
2023-06-17T04:04:49.141Z,97689.63
2023-06-17T04:07:15.891Z,97686.22
2023-06-17T04:09:48.203Z,97685.44
2023-06-17T04:12:28.511Z,97689.28
2023-06-17T04:14:55.084Z,97695.06
2023-06-17T04:17:21.709Z,97691.75
2023-06-17T04:19:48.968Z,97687.75
2023-06-17T04:22:15.665Z,97692.97
2023-06-17T04:24:42.197Z,97688.16
2023-06-17T04:27:08.885Z,97689.47
2023-06-17T04:29:36.045Z,97687.63
2023-06-17T04:32:03.613Z,97694.13
2023-06-17T04:34:32.372Z,97688.47
2023-06-17T04:36:59.551Z,97693.81
2023-06-17T04:39:29.824Z,97694.50
2023-06-17T04:41:57.606Z,97695.19
2023-06-17T04:44:24.130Z,97691.91
2023-06-17T04:46:50.713Z,97683.84
2023-06-17T04:49:17.954Z,97696.44
2023-06-17T04:51:44.590Z,97687.94
2023-06-17T04:54:11.624Z,97686.94
2023-06-17T04:56:39.797Z,97688.97
2023-06-17T04:59:06.301Z,97686.00
2023-06-17T05:01:32.886Z,97685.31
2023-06-17T05:03:59.723Z,97683.41
2023-06-17T05:06:26.339Z,97681.22
2023-06-17T05:08:53.225Z,97680.69
2023-06-17T05:11:20.524Z,97682.16
2023-06-17T05:13:47.132Z,97687.94
2023-06-17T05:16:13.764Z,97686.25
2023-06-17T05:18:41.625Z,97685.31
2023-06-17T05:21:08.186Z,97691.88
2023-06-17T05:23:34.779Z,97692.81
2023-06-17T05:26:01.414Z,97683.75
2023-06-17T05:28:28.522Z,97686.44
2023-06-17T05:30:55.269Z,97687.34
2023-06-17T05:33:22.036Z,97685.66
2023-06-17T05:35:50.973Z,97678.47
2023-06-17T05:38:17.509Z,97687.09
2023-06-17T05:40:44.089Z,97690.56
2023-06-17T05:43:10.922Z,97683.00
2023-06-17T05:45:37.423Z,97692.44
2023-06-17T05:48:04.680Z,97696.50
2023-06-17T05:50:31.245Z,97695.56
2023-06-17T05:52:59.725Z,97687.72
2023-06-17T05:55:26.296Z,97686.03
2023-06-17T05:57:53.308Z,97691.75
2023-06-17T06:00:20.593Z,97689.25
2023-06-17T06:02:47.945Z,97692.50
2023-06-17T06:05:14.714Z,97691.09
2023-06-17T06:07:42.397Z,97689.81
2023-06-17T06:10:09.112Z,97697.38
2023-06-17T06:12:40.887Z,97699.25
2023-06-17T06:15:07.811Z,97701.53
2023-06-17T06:17:34.654Z,97694.72
2023-06-17T06:20:01.271Z,97695.19
2023-06-17T06:22:27.937Z,97689.00
2023-06-17T06:24:54.652Z,97701.63
2023-06-17T06:27:21.292Z,97695.38
2023-06-17T06:29:47.892Z,97696.72
2023-06-17T06:32:15.058Z,97697.59
2023-06-17T06:34:41.963Z,97695.59
2023-06-17T06:37:08.497Z,97693.28
2023-06-17T06:39:37.082Z,97688.97
2023-06-17T06:42:03.861Z,97697.59
2023-06-17T06:44:45.674Z,97690.56
2023-06-17T06:47:16.199Z,97689.06
2023-06-17T06:49:42.752Z,97701.19
2023-06-17T06:52:09.318Z,97696.19
2023-06-17T06:54:36.044Z,97699.34
2023-06-17T06:57:02.979Z,97699.88
2023-06-17T06:59:30.406Z,97698.47
2023-06-17T07:01:57.595Z,97699.72
2023-06-17T07:04:24.445Z,97698.97
2023-06-17T07:06:55.740Z,97699.09
2023-06-17T07:09:27.428Z,97697.19
2023-06-17T07:11:54.032Z,97692.03
2023-06-17T07:14:20.620Z,97694.25
2023-06-17T07:16:47.198Z,97699.53
2023-06-17T07:19:13.748Z,97696.06
2023-06-17T07:21:40.414Z,97694.66
2023-06-17T07:24:06.971Z,97690.22
2023-06-17T07:26:33.576Z,97696.69
2023-06-17T07:29:02.394Z,97694.50
2023-06-17T07:31:32.187Z,97689.53
2023-06-17T07:34:00.118Z,97707.72
2023-06-17T07:36:27.288Z,97698.03
2023-06-17T07:38:53.924Z,97691.88
2023-06-17T07:41:21.708Z,97690.03
2023-06-17T07:43:48.239Z,97688.94
2023-06-17T07:46:14.957Z,97689.00
2023-06-17T07:48:41.628Z,97690.69
2023-06-17T07:51:08.282Z,97683.25
2023-06-17T07:53:34.910Z,97681.78
2023-06-17T07:56:01.748Z,97691.28
2023-06-17T07:58:28.334Z,97684.22
2023-06-17T08:00:54.986Z,97682.28
2023-06-17T08:03:22.397Z,97679.56
2023-06-17T08:05:49.125Z,97677.63
2023-06-17T08:08:15.637Z,97677.22
2023-06-17T08:10:42.107Z,97678.03
2023-06-17T08:13:08.962Z,97663.44
2023-06-17T08:15:36.349Z,97666.56
2023-06-17T08:18:03.036Z,97663.41
2023-06-17T08:20:29.586Z,97667.34
2023-06-17T08:22:56.187Z,97656.34
2023-06-17T08:25:23.190Z,97660.25
2023-06-17T08:27:51.541Z,97666.13
2023-06-17T08:30:18.587Z,97656.59
2023-06-17T08:32:45.476Z,97653.78
2023-06-17T08:35:12.057Z,97656.44
2023-06-17T08:37:39.193Z,97656.31
2023-06-17T08:40:06.362Z,97646.38
2023-06-17T08:42:32.916Z,97649.06
2023-06-17T08:44:59.963Z,97650.19
2023-06-17T08:47:27.141Z,97649.25
2023-06-17T08:49:59.746Z,97647.94
2023-06-17T08:52:26.332Z,97643.91
2023-06-17T08:54:53.592Z,97636.63
2023-06-17T08:57:20.137Z,97636.03
2023-06-17T08:59:46.561Z,97635.91
2023-06-17T09:02:15.695Z,97634.22
2023-06-17T09:04:42.372Z,97621.44
2023-06-17T09:07:10.353Z,97630.69
2023-06-17T09:09:37.290Z,97630.06
2023-06-17T09:12:06.488Z,97634.44
2023-06-17T09:14:33.528Z,97631.25
2023-06-17T09:17:02.006Z,97622.53
2023-06-17T09:19:30.062Z,97629.28
2023-06-17T09:21:57.274Z,97626.38
2023-06-17T09:24:29.080Z,97617.84
2023-06-17T09:26:55.641Z,97621.25
2023-06-17T09:29:22.454Z,97625.00
2023-06-17T09:31:49.729Z,97618.59
2023-06-17T09:34:16.360Z,97620.88
2023-06-17T09:36:42.875Z,97620.25
2023-06-17T09:39:09.541Z,97617.63
2023-06-17T09:41:40.375Z,97623.13
2023-06-17T09:44:07.194Z,97623.78
2023-06-17T09:46:40.525Z,97617.84
2023-06-17T09:49:07.410Z,97621.34
2023-06-17T09:51:39.041Z,97627.69
2023-06-17T09:54:09.409Z,97622.19
2023-06-17T09:56:36.865Z,97627.28
2023-06-17T09:59:04.489Z,97627.25
2023-06-17T10:01:39.863Z,97622.22
2023-06-17T10:04:06.906Z,97612.22
2023-06-17T10:06:35.170Z,97607.88
2023-06-17T10:09:03.959Z,97607.34
2023-06-17T10:11:30.858Z,97603.38
2023-06-17T10:13:57.813Z,97598.81
2023-06-17T10:16:24.918Z,97594.72
2023-06-17T10:18:52.597Z,97583.47
2023-06-17T10:21:19.265Z,97598.19
2023-06-17T10:23:46.009Z,97600.19
2023-06-17T10:26:13.051Z,97595.66
2023-06-17T10:28:43.709Z,97588.47
2023-06-17T10:31:20.033Z,97594.31
2023-06-17T10:33:47.231Z,97593.25
2023-06-17T10:36:13.789Z,97587.34
2023-06-17T10:38:40.497Z,97588.94
2023-06-17T10:41:07.108Z,97588.13
2023-06-17T10:43:39.585Z,97583.63
2023-06-17T10:46:06.304Z,97578.91
2023-06-17T10:48:37.463Z,97583.28
2023-06-17T10:51:04.831Z,97575.34
2023-06-17T10:53:32.070Z,97585.78
2023-06-17T10:55:59.351Z,97570.81
2023-06-17T10:58:30.660Z,97570.03
2023-06-17T11:01:03.305Z,97567.00
2023-06-17T11:03:30.322Z,97568.06
2023-06-17T11:06:00.617Z,97570.31
2023-06-17T11:08:28.031Z,97567.16
2023-06-17T11:10:54.654Z,97562.22
2023-06-17T11:13:22.485Z,97565.84
2023-06-17T11:15:54.882Z,97559.47
2023-06-17T11:18:21.727Z,97566.59
2023-06-17T11:20:48.175Z,97557.38
2023-06-17T11:23:14.731Z,97560.41
2023-06-17T11:25:45.363Z,97554.19
2023-06-17T11:28:12.808Z,97554.03
2023-06-17T11:30:40.102Z,97546.31
2023-06-17T11:33:07.918Z,97551.19
2023-06-17T11:35:34.510Z,97551.44
2023-06-17T11:38:01.165Z,97550.72
2023-06-17T11:40:27.786Z,97553.22
2023-06-17T11:42:54.270Z,97540.63
2023-06-17T11:45:21.504Z,97539.63
2023-06-17T11:47:48.070Z,97541.97
2023-06-17T11:50:15.306Z,97532.66
2023-06-17T11:52:41.982Z,97540.78
2023-06-17T11:55:13.722Z,97549.31
2023-06-17T11:57:40.211Z,97540.66
2023-06-17T12:00:11.003Z,97540.34
2023-06-17T12:02:40.992Z,97538.34
2023-06-17T12:05:08.042Z,97529.53
2023-06-17T12:07:39.686Z,97533.44
2023-06-17T12:10:07.919Z,97536.47
2023-06-17T12:12:35.174Z,97530.38
2023-06-17T12:15:14.945Z,97531.25
2023-06-17T12:17:46.065Z,97539.72
2023-06-17T12:20:13.359Z,97534.38
2023-06-17T12:22:40.184Z,97532.38
2023-06-17T12:25:06.783Z,97525.94
2023-06-17T12:27:33.666Z,97528.78
2023-06-17T12:30:05.007Z,97531.00
2023-06-17T12:32:31.609Z,97525.13
2023-06-17T12:34:58.934Z,97529.81
2023-06-17T12:37:27.486Z,97516.41
2023-06-17T12:39:54.945Z,97521.31
2023-06-17T12:42:22.587Z,97510.63
2023-06-17T12:44:50.073Z,97503.53
2023-06-17T12:47:16.628Z,97515.22
2023-06-17T12:49:43.253Z,97511.66
2023-06-17T12:52:10.037Z,97497.38
2023-06-17T12:54:36.836Z,97495.34
2023-06-17T12:57:04.311Z,97499.19
2023-06-17T12:59:31.343Z,97499.66
2023-06-17T13:01:58.076Z,97506.06
2023-06-17T13:04:24.834Z,97499.47
2023-06-17T13:06:51.360Z,97506.28
2023-06-17T13:09:17.891Z,97504.84
2023-06-17T13:11:44.692Z,97501.28
2023-06-17T13:14:11.398Z,97507.41
2023-06-17T13:16:38.260Z,97503.63
2023-06-17T13:19:05.698Z,97486.88
2023-06-17T13:21:34.803Z,97496.22
2023-06-17T13:24:01.584Z,97487.94
2023-06-17T13:26:29.339Z,97478.00
2023-06-17T13:28:56.358Z,97463.75
2023-06-17T13:31:23.080Z,97468.44
2023-06-17T13:33:49.560Z,97464.72
2023-06-17T13:36:16.077Z,97465.53
2023-06-17T13:38:42.544Z,97469.09
2023-06-17T13:41:09.088Z,97471.69
2023-06-17T13:43:35.600Z,97472.81
2023-06-17T13:46:02.165Z,97473.03
2023-06-17T13:48:32.284Z,97458.38
2023-06-17T13:50:59.408Z,97462.63
2023-06-17T13:53:26.108Z,97465.91
2023-06-17T13:55:53.605Z,97456.44
2023-06-17T13:58:20.089Z,97456.31
2023-06-17T14:00:46.685Z,97459.38
2023-06-17T14:03:16.371Z,97464.75
2023-06-17T14:05:44.261Z,97467.34
2023-06-17T14:08:10.985Z,97458.91
2023-06-17T14:10:37.588Z,97464.19
2023-06-17T14:13:04.126Z,97458.59
2023-06-17T14:15:30.799Z,97453.56
2023-06-17T14:17:57.434Z,97457.22
2023-06-17T14:20:24.357Z,97448.53
2023-06-17T14:22:56.477Z,97444.63
2023-06-17T14:25:23.220Z,97453.41
2023-06-17T14:27:49.929Z,97444.06
2023-06-17T14:30:16.512Z,97453.59
2023-06-17T14:32:44.134Z,97446.81
2023-06-17T14:35:11.499Z,97449.66
2023-06-17T14:37:41.522Z,97447.09
2023-06-17T14:40:09.170Z,97441.19
2023-06-17T14:42:35.853Z,97442.41
2023-06-17T14:45:02.517Z,97456.47
2023-06-17T14:47:29.230Z,97447.78
2023-06-17T14:49:55.827Z,97447.19
2023-06-17T14:52:23.125Z,97437.84
2023-06-17T14:54:50.945Z,97434.06
2023-06-17T14:57:17.850Z,97438.16
2023-06-17T14:59:45.583Z,97443.31
2023-06-17T15:02:22.118Z,97438.88
2023-06-17T15:04:48.735Z,97445.38
2023-06-17T15:07:15.238Z,97437.91
2023-06-17T15:09:42.046Z,97437.56
2023-06-17T15:12:14.194Z,97428.78
2023-06-17T15:14:41.664Z,97419.50
2023-06-17T15:17:08.689Z,97415.03
2023-06-17T15:19:37.106Z,97425.06
2023-06-17T15:22:04.304Z,97422.06
2023-06-17T15:24:31.075Z,97430.78
2023-06-17T15:26:57.679Z,97427.16
2023-06-17T15:29:24.669Z,97430.66
2023-06-17T15:31:51.176Z,97419.59
2023-06-17T15:34:18.608Z,97419.94
2023-06-17T15:36:45.150Z,97427.09
2023-06-17T15:39:22.271Z,97431.44
2023-06-17T15:41:49.373Z,97431.00
2023-06-17T15:44:16.129Z,97426.66
2023-06-17T15:46:42.854Z,97420.38
2023-06-17T15:49:09.514Z,97420.75
2023-06-17T15:51:36.513Z,97425.44
2023-06-17T15:54:03.324Z,97430.13
2023-06-17T15:56:30.019Z,97426.94
2023-06-17T15:58:56.616Z,97424.84
2023-06-17T16:01:23.167Z,97426.66
2023-06-17T16:03:49.767Z,97421.41
2023-06-17T16:06:16.282Z,97422.81
2023-06-17T16:08:43.504Z,97421.38
2023-06-17T16:11:09.974Z,97422.38
2023-06-17T16:13:37.424Z,97416.63
2023-06-17T16:16:04.215Z,97420.28
2023-06-17T16:18:30.774Z,97416.59
2023-06-17T16:20:57.270Z,97395.25
2023-06-17T16:23:23.816Z,97417.69
2023-06-17T16:25:55.580Z,97418.25
2023-06-17T16:28:22.626Z,97418.84
2023-06-17T16:30:49.173Z,97421.38
2023-06-17T16:33:15.610Z,97420.78
2023-06-17T16:35:42.125Z,97410.78
2023-06-17T16:38:08.940Z,97422.09
2023-06-17T16:40:35.575Z,97425.50
2023-06-17T16:43:02.223Z,97429.06
2023-06-17T16:45:29.022Z,97422.38
2023-06-17T16:47:56.575Z,97428.19
2023-06-17T16:50:23.511Z,97428.50
2023-06-17T16:52:50.634Z,97429.56
2023-06-17T16:55:17.128Z,97427.44
2023-06-17T16:57:43.567Z,97433.41
2023-06-17T17:00:10.334Z,97364.66
2023-06-17T17:02:36.912Z,97437.16
2023-06-17T17:05:03.590Z,97436.81
2023-06-17T17:07:30.098Z,97439.22
2023-06-17T17:09:56.666Z,97436.09
2023-06-17T17:12:23.145Z,97435.81
2023-06-17T17:14:49.666Z,97431.53
2023-06-17T17:17:16.174Z,97431.16
2023-06-17T17:19:42.663Z,97434.47
2023-06-17T17:22:09.115Z,97439.63
2023-06-17T17:24:35.711Z,97435.72
2023-06-17T17:27:02.333Z,97435.00
2023-06-17T17:29:28.875Z,97433.06
2023-06-17T17:31:55.502Z,97443.84
2023-06-17T17:34:22.009Z,97434.03
2023-06-17T17:36:48.562Z,97438.78
2023-06-17T17:39:15.148Z,97434.91
2023-06-17T17:41:41.617Z,97439.38
2023-06-17T17:44:08.209Z,97441.00
2023-06-17T17:46:35.000Z,97449.03
2023-06-17T17:49:01.685Z,97441.19
2023-06-17T17:51:28.179Z,97441.19
2023-06-17T17:53:55.955Z,97436.84
2023-06-17T17:56:22.529Z,97447.16
2023-06-17T17:58:50.688Z,97447.56
2023-06-17T18:01:17.211Z,97449.22
2023-06-17T18:03:43.887Z,97451.25
2023-06-17T18:06:10.670Z,97463.56
2023-06-17T18:08:37.209Z,97460.03
2023-06-17T18:11:03.651Z,97459.72
2023-06-17T18:13:30.290Z,97461.75
2023-06-17T18:15:56.848Z,97463.81
2023-06-17T18:18:23.336Z,97466.59
2023-06-17T18:20:49.879Z,97467.06
2023-06-17T18:23:16.700Z,97463.13
2023-06-17T18:25:43.181Z,97469.09
2023-06-17T18:28:09.807Z,97466.38
2023-06-17T18:30:36.287Z,97466.47
2023-06-17T18:33:02.880Z,97466.50
2023-06-17T18:35:29.739Z,97478.47
2023-06-17T18:37:56.281Z,97469.78
2023-06-17T18:40:23.102Z,97474.97
2023-06-17T18:42:49.971Z,97473.81
2023-06-17T18:45:17.210Z,97476.66
2023-06-17T18:47:44.912Z,97471.97
2023-06-17T18:50:11.494Z,97471.63
2023-06-17T18:52:38.075Z,97478.00
2023-06-17T18:55:04.789Z,97483.19
2023-06-17T18:57:31.557Z,97483.63
2023-06-17T19:00:00.663Z,97481.72
2023-06-17T19:02:28.100Z,97485.31
2023-06-17T19:04:54.879Z,97485.72
2023-06-17T19:07:21.446Z,97490.16
2023-06-17T19:09:51.008Z,97492.97
2023-06-17T19:12:17.670Z,97493.38
2023-06-17T19:14:44.305Z,97492.69
2023-06-17T19:17:10.973Z,97499.44
2023-06-17T19:19:37.486Z,97495.97
2023-06-17T19:22:04.284Z,97500.34
2023-06-17T19:24:31.117Z,97503.13
2023-06-17T19:26:57.843Z,97500.41
2023-06-17T19:29:24.469Z,97502.41
2023-06-17T19:31:51.068Z,97504.84
2023-06-17T19:34:17.690Z,97502.09
2023-06-17T19:36:44.271Z,97512.75
2023-06-17T19:39:10.938Z,97517.53
2023-06-17T19:41:37.431Z,97515.19
2023-06-17T19:44:06.084Z,97517.63
2023-06-17T19:46:32.676Z,97518.38
2023-06-17T19:48:59.174Z,97518.44
2023-06-17T19:51:25.700Z,97527.13
2023-06-17T19:53:52.335Z,97521.25
2023-06-17T19:56:19.705Z,97527.56
2023-06-17T19:58:46.240Z,97518.53
2023-06-17T20:01:12.849Z,97518.53
2023-06-17T20:03:39.396Z,97524.44
2023-06-17T20:06:06.034Z,97522.47
2023-06-17T20:08:32.587Z,97524.84
2023-06-17T20:10:59.200Z,97524.06
2023-06-17T20:13:25.783Z,97531.16
2023-06-17T20:15:52.791Z,97524.06
2023-06-17T20:18:19.378Z,97532.72
2023-06-17T20:20:45.965Z,97528.75
2023-06-17T20:23:13.001Z,97532.28
2023-06-17T20:25:39.549Z,97528.31
2023-06-17T20:28:06.112Z,97529.13
2023-06-17T20:30:32.608Z,97538.91
2023-06-17T20:32:59.101Z,97542.47
2023-06-17T20:35:25.761Z,97546.38
2023-06-17T20:37:52.947Z,97543.59
2023-06-17T20:40:19.682Z,97545.94
2023-06-17T20:42:46.387Z,97538.03
2023-06-17T20:45:12.954Z,97534.06
2023-06-17T20:47:39.489Z,97538.75
2023-06-17T20:50:06.445Z,97537.94
2023-06-17T20:52:33.014Z,97544.59
2023-06-17T20:54:59.527Z,97541.84
2023-06-17T20:57:25.963Z,97540.66
2023-06-17T20:59:53.868Z,97536.34
2023-06-17T21:02:20.809Z,97540.22
2023-06-17T21:04:47.536Z,97539.00
2023-06-17T21:07:14.046Z,97538.56
2023-06-17T21:09:41.049Z,97541.25
2023-06-17T21:12:07.649Z,97542.81
2023-06-17T21:14:34.191Z,97545.50
2023-06-17T21:17:00.894Z,97546.59
2023-06-17T21:19:27.455Z,97546.16
2023-06-17T21:21:54.025Z,97542.97
2023-06-17T21:24:21.256Z,97550.78
2023-06-17T21:26:47.888Z,97544.84
2023-06-17T21:29:14.348Z,97543.63
2023-06-17T21:31:40.966Z,97547.91
2023-06-17T21:34:07.468Z,97554.16
2023-06-17T21:36:34.143Z,97545.88
2023-06-17T21:39:00.779Z,97548.59
2023-06-17T21:41:27.359Z,97550.53
2023-06-17T21:43:53.829Z,97548.53
2023-06-17T21:46:23.249Z,97552.78
2023-06-17T21:48:49.871Z,97549.59
2023-06-17T21:51:16.346Z,97542.06
2023-06-17T21:53:42.882Z,97543.31
2023-06-17T21:56:09.319Z,97550.75
2023-06-17T21:58:35.828Z,97549.09
2023-06-17T22:01:02.402Z,97541.19
2023-06-17T22:03:28.914Z,97544.25
2023-06-17T22:05:55.449Z,97540.25
2023-06-17T22:08:30.530Z,97544.53
2023-06-17T22:11:00.950Z,97540.94
2023-06-17T22:13:27.507Z,97544.00
2023-06-17T22:15:54.076Z,97539.31
2023-06-17T22:18:20.560Z,97535.38
2023-06-17T22:20:50.043Z,97545.50
2023-06-17T22:23:17.051Z,97535.59
2023-06-17T22:25:43.654Z,97544.91
2023-06-17T22:28:10.223Z,97544.00
2023-06-17T22:30:38.401Z,97550.19
2023-06-17T22:33:06.190Z,97539.47
2023-06-17T22:35:32.703Z,97542.53
2023-06-17T22:37:59.182Z,97537.41
2023-06-17T22:40:25.948Z,97540.03
2023-06-17T22:42:52.516Z,97539.56
2023-06-17T22:45:19.079Z,97534.78
2023-06-17T22:47:46.008Z,97539.72
2023-06-17T22:50:12.516Z,97536.84
2023-06-17T22:52:39.118Z,97542.50
2023-06-17T22:55:06.098Z,97554.47
2023-06-17T22:57:34.174Z,97552.78
2023-06-17T23:00:00.707Z,97544.88
2023-06-17T23:02:27.409Z,97544.47
2023-06-17T23:04:54.029Z,97545.53
2023-06-17T23:07:20.630Z,97541.56
2023-06-17T23:09:47.073Z,97541.41
2023-06-17T23:12:13.609Z,97541.72
2023-06-17T23:14:40.143Z,97535.06
2023-06-17T23:17:06.853Z,97541.69
2023-06-17T23:19:33.419Z,97539.72
2023-06-17T23:22:00.453Z,97540.53
2023-06-17T23:24:27.276Z,97540.53
2023-06-17T23:26:53.810Z,97538.16
2023-06-17T23:29:20.787Z,97531.88
2023-06-17T23:31:47.374Z,97539.66
2023-06-17T23:34:14.736Z,97538.06
2023-06-17T23:36:41.350Z,97542.69
2023-06-17T23:39:07.814Z,97541.03
2023-06-17T23:41:34.339Z,97537.50
2023-06-17T23:44:00.875Z,97534.00
2023-06-17T23:46:27.912Z,97533.22
2023-06-17T23:48:54.831Z,97535.44
2023-06-17T23:51:21.772Z,97532.53
2023-06-17T23:53:48.502Z,97535.97
2023-06-17T23:56:15.088Z,97535.81
2023-06-17T23:58:41.623Z,97529.44
